Time;durP1;ratioP1;P1;durP2;ratioP2;P2;SDS_P1;SDS_P2;PMS_P1;PMS_P2;Temp;Humidity;BMP_temperature;BMP_pressure;BME280_temperature;BME280_humidity;BME280_pressure;Samples;Min_cycle;Max_cycle;Signal;HPM_P1;HPM_P2
2022/11/24 00:01:16;;;;;;;0.88;0.88;;;7.00;99.90;;;;;;4967040;28;20042;-83
2022/11/24 00:03:57;;;;;;;1.83;1.73;;;6.80;99.90;;;;;;4971329;28;20097;-81
2022/11/24 00:06:23;;;;;;;0.43;0.43;;;6.80;99.90;;;;;;4990478;28;20046;-83
2022/11/24 00:08:51;;;;;;;;;;;6.80;99.90;;;;;;4987217;28;20054;-83
2022/11/24 00:11:22;;;;;;;0.70;0.70;;;6.80;99.90;;;;;;5015518;28;19928;-82
2022/11/24 00:13:48;;;;;;;0.73;0.73;;;7.10;99.90;;;;;;5019479;28;20065;-82
2022/11/24 00:16:29;;;;;;;0.70;0.70;;;6.80;99.90;;;;;;4994073;28;20057;-82
2022/11/24 00:18:57;;;;;;;0.77;0.77;;;6.80;99.90;;;;;;4997494;28;20042;-83
2022/11/24 00:21:24;;;;;;;0.60;0.60;;;6.80;99.90;;;;;;4993360;28;20125;-83
2022/11/24 00:23:50;;;;;;;0.40;0.40;;;6.70;99.90;;;;;;4992472;28;20061;-84
2022/11/24 00:26:20;;;;;;;0.80;0.80;;;6.70;99.90;;;;;;5012120;28;20073;-83
2022/11/24 00:28:47;;;;;;;3.63;3.40;;;6.70;99.90;;;;;;5009280;28;20038;-83
2022/11/24 00:31:24;;;;;;;0.80;0.80;;;6.70;99.90;;;;;;5013911;28;20044;-82
2022/11/24 00:33:51;;;;;;;;;;;6.70;99.90;;;;;;5012045;28;20076;-81
2022/11/24 00:36:18;;;;;;;0.50;0.50;;;6.60;99.90;;;;;;5008209;28;19925;-83
2022/11/24 00:39:01;;;;;;;0.57;0.57;;;6.50;99.90;;;;;;5010379;28;20181;-82
2022/11/24 00:41:28;;;;;;;0.50;0.50;;;6.50;99.90;;;;;;5007532;28;20084;-81
2022/11/24 00:43:54;;;;;;;0.52;0.52;;;6.40;99.90;;;;;;4994466;28;20387;-82
2022/11/24 00:46:21;;;;;;;1.98;0.60;;;6.40;99.90;;;;;;5008760;28;20041;-82
2022/11/24 00:48:47;;;;;;;0.50;0.50;;;6.40;99.90;;;;;;5010015;28;20046;-82
2022/11/24 00:51:16;;;;;;;0.70;0.70;;;6.50;99.90;;;;;;4982969;28;20041;-82
2022/11/24 00:53:42;;;;;;;0.52;0.52;;;6.40;99.90;;;;;;4994858;28;20045;-83
2022/11/24 00:56:11;;;;;;;0.70;0.70;;;6.40;99.90;;;;;;5007767;28;20099;-83
2022/11/24 00:58:38;;;;;;;0.75;0.75;;;6.30;99.90;;;;;;4992637;28;20137;-83
2022/11/24 01:01:24;;;;;;;0.73;0.73;;;6.40;99.90;;;;;;4995988;28;20065;-84
2022/11/24 01:03:50;;;;;;;0.70;0.70;;;6.40;99.90;;;;;;5009034;28;20046;-83
2022/11/24 01:06:22;;;;;;;0.60;0.60;;;6.50;99.90;;;;;;5010112;28;20120;-82
2022/11/24 01:08:49;;;;;;;1.58;0.90;;;6.40;99.90;;;;;;5009713;28;20049;-81
2022/11/24 01:12:00;;;;;;;0.98;0.98;;;6.40;99.90;;;;;;5008967;28;20420;-82
2022/11/24 01:14:27;;;;;;;0.73;0.73;;;6.40;99.90;;;;;;5014401;28;20169;-81
2022/11/24 01:16:54;;;;;;;0.60;0.60;;;6.40;99.90;;;;;;5012598;28;20057;-81
2022/11/24 01:19:21;;;;;;;;;;;6.40;99.90;;;;;;5006435;28;20080;-82
2022/11/24 01:21:47;;;;;;;0.65;0.65;;;6.50;99.90;;;;;;5007187;28;20355;-84
2022/11/24 01:24:13;;;;;;;1.20;1.20;;;6.40;99.90;;;;;;5005678;28;20138;-82
2022/11/24 01:26:39;;;;;;;0.77;0.77;;;6.50;99.90;;;;;;5007604;28;20065;-82
2022/11/24 01:29:09;;;;;;;0.50;0.50;;;6.40;99.90;;;;;;5007457;28;20121;-82
2022/11/24 01:31:35;;;;;;;0.63;0.63;;;6.40;99.90;;;;;;5010926;28;20054;-82
2022/11/24 01:34:02;;;;;;;0.60;0.60;;;6.30;99.90;;;;;;5014228;28;20042;-82
2022/11/24 01:36:28;;;;;;;0.60;0.60;;;6.30;99.90;;;;;;5007942;28;20033;-81
2022/11/24 01:38:54;;;;;;;0.60;0.60;;;6.30;99.90;;;;;;4988654;28;20030;-83
2022/11/24 01:41:26;;;;;;;0.70;0.70;;;6.20;99.90;;;;;;4996585;28;20163;-82
2022/11/24 01:43:54;;;;;;;0.50;0.50;;;6.30;99.90;;;;;;5011229;28;20143;-83
2022/11/24 01:46:30;;;;;;;0.60;0.60;;;6.20;99.90;;;;;;4988381;28;20045;-81
2022/11/24 01:49:12;;;;;;;0.93;0.93;;;6.20;99.90;;;;;;5007520;28;20049;-83
2022/11/24 01:52:04;;;;;;;0.60;0.60;;;6.20;99.90;;;;;;5010125;28;20752;-83
2022/11/24 01:54:40;;;;;;;0.63;0.63;;;6.20;99.90;;;;;;5029800;28;20057;-83
2022/11/24 01:57:15;;;;;;;2.15;2.05;;;6.20;99.90;;;;;;5013823;28;20042;-83
2022/11/24 01:59:42;;;;;;;0.50;0.50;;;6.30;99.90;;;;;;5016507;28;20056;-83
2022/11/24 02:02:13;;;;;;;1.42;0.70;;;6.30;99.90;;;;;;5012066;28;20076;-84
2022/11/24 02:04:40;;;;;;;0.95;0.95;;;6.30;99.90;;;;;;5014888;28;20598;-83
2022/11/24 02:07:06;;;;;;;0.70;0.70;;;6.40;99.90;;;;;;4997341;28;20049;-82
2022/11/24 02:09:45;;;;;;;1.45;1.45;;;6.70;99.90;;;;;;4973539;28;20132;-85
2022/11/24 02:12:17;;;;;;;0.70;0.70;;;6.60;99.90;;;;;;4973858;28;20049;-83
2022/11/24 02:14:44;;;;;;;0.60;0.60;;;6.60;99.90;;;;;;4988710;28;20042;-82
2022/11/24 02:17:10;;;;;;;0.60;0.60;;;6.60;99.90;;;;;;4992858;28;20053;-82
2022/11/24 02:19:52;;;;;;;0.80;0.80;;;6.60;99.90;;;;;;4993827;28;20038;-83
2022/11/24 02:22:37;;;;;;;0.70;0.70;;;6.60;99.90;;;;;;4992199;28;20096;-82
2022/11/24 02:25:19;;;;;;;0.73;0.73;;;6.60;99.90;;;;;;4987306;28;20049;-82
2022/11/24 02:27:45;;;;;;;0.50;0.50;;;6.70;99.90;;;;;;4963811;28;20050;-83
2022/11/24 02:30:14;;;;;;;1.50;1.45;;;6.70;99.90;;;;;;4980171;28;20038;-82
2022/11/24 02:32:41;;;;;;;1.45;1.38;;;6.70;99.90;;;;;;4976897;28;20116;-84
2022/11/24 02:35:08;;;;;;;0.57;0.57;;;6.70;99.90;;;;;;4943992;28;20137;-82
2022/11/24 02:37:35;;;;;;;0.57;0.57;;;6.70;99.90;;;;;;4976883;28;20100;-83
2022/11/24 02:40:07;;;;;;;0.52;0.52;;;6.70;99.90;;;;;;4977431;28;20689;-83
2022/11/24 02:42:38;;;;;;;0.65;0.65;;;6.60;99.90;;;;;;4961174;28;21912;-81
2022/11/24 02:45:05;;;;;;;0.60;0.60;;;6.60;99.90;;;;;;4977122;28;20050;-81
2022/11/24 02:47:30;;;;;;;0.50;0.50;;;6.40;99.90;;;;;;4977132;28;20082;-81
2022/11/24 02:50:00;;;;;;;0.50;0.50;;;6.40;99.90;;;;;;4977717;28;20038;-82
2022/11/24 02:52:26;;;;;;;0.55;0.55;;;6.40;99.90;;;;;;4993067;28;20061;-83
2022/11/24 02:54:52;;;;;;;0.50;0.50;;;6.40;99.90;;;;;;4976126;28;20054;-81
2022/11/24 02:57:18;;;;;;;0.45;0.45;;;6.30;99.90;;;;;;4959949;28;20144;-81
2022/11/24 02:59:45;;;;;;;0.60;0.60;;;6.20;99.90;;;;;;4959708;28;20054;-82
2022/11/24 03:02:11;;;;;;;0.55;0.55;;;6.20;99.90;;;;;;4977145;28;20070;-83
2022/11/24 03:04:36;;;;;;;0.60;0.60;;;6.20;99.90;;;;;;4959543;28;21685;-82
2022/11/24 03:07:02;;;;;;;0.50;0.50;;;6.50;99.90;;;;;;4983273;28;20041;-84
2022/11/24 03:09:30;;;;;;;0.40;0.40;;;7.00;99.90;;;;;;4996049;28;20069;-83
2022/11/24 03:11:56;;;;;;;0.60;0.60;;;6.40;99.90;;;;;;4967679;28;20045;-81
2022/11/24 03:14:21;;;;;;;0.40;0.40;;;7.00;99.90;;;;;;4999371;28;20116;-81
2022/11/24 03:16:48;;;;;;;;;;;6.40;99.90;;;;;;4995857;28;20049;-84
2022/11/24 03:19:14;;;;;;;0.88;0.88;;;6.50;99.90;;;;;;4996829;28;19975;-83
2022/11/24 03:21:40;;;;;;;0.63;0.63;;;6.40;99.90;;;;;;4983702;28;20554;-82
2022/11/24 03:24:05;;;;;;;0.50;0.50;;;6.40;99.90;;;;;;4982944;28;20044;-82
2022/11/24 03:26:34;;;;;;;0.57;0.57;;;6.40;99.90;;;;;;4987706;28;20106;-83
2022/11/24 03:29:01;;;;;;;0.60;0.60;;;6.40;99.90;;;;;;4989880;28;20828;-83
2022/11/24 03:31:28;;;;;;;0.60;0.60;;;6.50;99.90;;;;;;5002884;28;20129;-82
2022/11/24 03:33:54;;;;;;;0.82;0.82;;;6.50;99.90;;;;;;5006673;28;20038;-83
2022/11/24 03:36:20;;;;;;;0.60;0.60;;;7.20;99.90;;;;;;5005453;28;20048;-83
2022/11/24 03:38:46;;;;;;;0.47;0.47;;;6.50;99.90;;;;;;4993044;28;20065;-82
2022/11/24 03:41:12;;;;;;;0.50;0.50;;;7.10;99.90;;;;;;4994334;28;20049;-84
2022/11/24 03:43:44;;;;;;;2.40;0.73;;;6.50;99.90;;;;;;5000035;28;20054;-83
2022/11/24 03:46:10;;;;;;;0.40;0.40;;;6.50;99.90;;;;;;5010718;28;20092;-83
2022/11/24 03:48:38;;;;;;;0.60;0.60;;;6.60;99.90;;;;;;5005344;28;20197;-83
2022/11/24 03:51:03;;;;;;;0.52;0.52;;;6.60;99.90;;;;;;4986914;28;20066;-82
2022/11/24 03:53:31;;;;;;;0.65;0.65;;;6.60;99.90;;;;;;5002951;28;20129;-84
2022/11/24 03:55:56;;;;;;;0.50;0.50;;;6.60;99.90;;;;;;4984029;28;20058;-82
2022/11/24 03:58:23;;;;;;;0.60;0.60;;;6.60;99.90;;;;;;4999798;28;20046;-82
2022/11/24 04:00:52;;;;;;;0.73;0.73;;;6.60;99.90;;;;;;4997974;28;21660;-83
2022/11/24 04:03:19;;;;;;;0.50;0.50;;;6.60;99.90;;;;;;5000048;28;20041;-83
2022/11/24 04:05:45;;;;;;;0.70;0.70;;;6.60;99.90;;;;;;4984063;28;20053;-83
2022/11/24 04:08:13;;;;;;;0.40;0.40;;;6.50;99.90;;;;;;5015941;28;20050;-83
2022/11/24 04:10:39;;;;;;;1.15;1.15;;;6.50;99.90;;;;;;5009008;28;20192;-84
2022/11/24 04:13:13;;;;;;;;;;;6.50;99.90;;;;;;5004500;28;20042;-82
2022/11/24 04:15:40;;;;;;;0.40;0.40;;;6.40;99.90;;;;;;5010118;28;20493;-82
2022/11/24 04:18:06;;;;;;;0.57;0.57;;;6.40;99.90;;;;;;5003768;28;20041;-83
2022/11/24 04:20:31;;;;;;;;;;;6.30;99.90;;;;;;5006850;28;20050;-81
2022/11/24 04:22:57;;;;;;;0.50;0.50;;;6.30;99.90;;;;;;4997528;28;19948;-83
2022/11/24 04:25:23;;;;;;;0.52;0.52;;;6.30;99.90;;;;;;4998932;28;20060;-83
2022/11/24 04:27:53;;;;;;;0.50;0.50;;;6.30;99.90;;;;;;4979383;28;20061;-84
2022/11/24 04:30:20;;;;;;;0.40;0.40;;;6.20;99.90;;;;;;4996884;28;20045;-82
2022/11/24 04:32:46;;;;;;;0.68;0.68;;;6.20;99.90;;;;;;5022515;28;20106;-83
2022/11/24 04:35:12;;;;;;;;;;;6.20;99.90;;;;;;5003819;28;21483;-83
2022/11/24 04:37:37;;;;;;;0.60;0.60;;;6.20;99.90;;;;;;5001782;28;19923;-82
2022/11/24 04:40:06;;;;;;;0.60;0.60;;;5.60;99.90;;;;;;4987102;28;20056;-83
2022/11/24 04:42:32;;;;;;;3.50;1.98;;;6.20;99.90;;;;;;4986839;28;20067;-84
2022/11/24 04:44:59;;;;;;;0.60;0.60;;;6.10;99.90;;;;;;4999217;28;20045;-84
2022/11/24 04:47:31;;;;;;;0.55;0.55;;;6.20;99.90;;;;;;4998124;28;20045;-82
2022/11/24 04:49:57;;;;;;;0.50;0.50;;;6.30;99.90;;;;;;4981554;28;20060;-84
2022/11/24 04:52:25;;;;;;;0.93;0.93;;;6.20;99.90;;;;;;5002135;28;20983;-83
2022/11/24 04:54:51;;;;;;;0.60;0.60;;;6.20;99.90;;;;;;4980848;28;20049;-83
2022/11/24 04:57:23;;;;;;;0.60;0.60;;;6.20;99.90;;;;;;4983646;28;20053;-84
2022/11/24 04:59:50;;;;;;;0.50;0.50;;;6.10;99.90;;;;;;4980430;28;20081;-82
2022/11/24 05:02:16;;;;;;;0.65;0.65;;;6.00;99.90;;;;;;5003060;28;20065;-83
2022/11/24 05:04:42;;;;;;;0.60;0.60;;;6.00;99.90;;;;;;4999665;28;20140;-83
2022/11/24 05:07:13;;;;;;;0.70;0.70;;;6.80;99.90;;;;;;4997686;28;21493;-83
2022/11/24 05:12:24;;;;;;;0.57;0.57;;;5.90;99.90;;;;;;4993727;28;20038;-81
2022/11/24 05:14:50;;;;;;;1.13;1.13;;;5.80;99.90;;;;;;4982823;28;20071;-84
2022/11/24 05:17:16;;;;;;;0.50;0.50;;;5.80;99.90;;;;;;4981816;28;20066;-84
2022/11/24 05:19:43;;;;;;;0.60;0.60;;;5.80;99.90;;;;;;4996412;28;20055;-83
2022/11/24 05:22:08;;;;;;;0.60;0.60;;;5.80;99.90;;;;;;5014365;28;20406;-81
2022/11/24 05:24:34;;;;;;;0.70;0.70;;;5.90;99.90;;;;;;4998861;28;20052;-84
2022/11/24 05:27:00;;;;;;;0.65;0.65;;;5.90;99.90;;;;;;4992444;28;20037;-82
2022/11/24 05:29:27;;;;;;;0.50;0.50;;;5.80;99.90;;;;;;5000194;28;20150;-83
2022/11/24 05:31:52;;;;;;;0.57;0.57;;;6.10;99.90;;;;;;4982796;28;20030;-82
2022/11/24 05:34:18;;;;;;;0.60;0.60;;;5.80;99.90;;;;;;5002990;28;20052;-82
2022/11/24 05:36:51;;;;;;;1.27;0.82;;;5.70;99.90;;;;;;5005198;28;20045;-84
2022/11/24 05:39:17;;;;;;;0.60;0.60;;;5.70;99.90;;;;;;4995401;28;20129;-83
2022/11/24 05:41:43;;;;;;;0.50;0.50;;;5.70;99.90;;;;;;4998727;28;21712;-85
2022/11/24 05:44:12;;;;;;;0.57;0.57;;;5.70;99.90;;;;;;4997069;28;21924;-83
2022/11/24 05:46:38;;;;;;;0.40;0.40;;;5.70;99.90;;;;;;4981043;28;20100;-84
2022/11/24 05:49:03;;;;;;;0.60;0.60;;;5.60;99.90;;;;;;4998325;28;20134;-83
2022/11/24 05:51:29;;;;;;;0.60;0.60;;;5.60;99.90;;;;;;4983231;28;20085;-83
2022/11/24 05:53:55;;;;;;;0.85;0.65;;;5.60;99.90;;;;;;5016078;28;20456;-82
2022/11/24 05:56:21;;;;;;;0.60;0.60;;;5.70;99.90;;;;;;5001046;28;20057;-84
2022/11/24 05:58:46;;;;;;;0.75;0.75;;;5.70;99.90;;;;;;5013968;28;20054;-84
2022/11/24 06:01:12;;;;;;;0.50;0.50;;;5.70;99.90;;;;;;5001087;28;20069;-84
2022/11/24 06:03:43;;;;;;;0.50;0.50;;;5.80;99.90;;;;;;5001710;28;20253;-83
2022/11/24 06:06:10;;;;;;;0.63;0.63;;;5.80;99.90;;;;;;4998871;28;20504;-84
2022/11/24 06:08:36;;;;;;;0.75;0.75;;;5.80;99.90;;;;;;4998267;28;20079;-84
2022/11/24 06:11:16;;;;;;;0.63;0.63;;;5.90;99.90;;;;;;5014298;28;20030;-84
2022/11/24 06:13:47;;;;;;;0.52;0.52;;;5.90;99.90;;;;;;4999761;28;20451;-85
2022/11/24 06:16:13;;;;;;;0.70;0.70;;;5.90;99.90;;;;;;5000822;28;20068;-83
2022/11/24 06:18:39;;;;;;;;;;;6.10;99.90;;;;;;5003798;28;20050;-83
2022/11/24 06:21:05;;;;;;;0.60;0.60;;;5.90;99.90;;;;;;5000061;28;19948;-84
2022/11/24 06:23:31;;;;;;;0.50;0.50;;;5.90;99.90;;;;;;4999406;28;20042;-82
2022/11/24 06:26:00;;;;;;;0.70;0.70;;;5.90;99.90;;;;;;4999026;28;20050;-82
2022/11/24 06:28:27;;;;;;;0.55;0.55;;;6.00;99.90;;;;;;5000313;28;20040;-83
2022/11/24 06:30:52;;;;;;;0.60;0.60;;;6.00;99.90;;;;;;4981657;28;22033;-82
2022/11/24 06:33:19;;;;;;;0.60;0.60;;;6.00;99.90;;;;;;4995474;28;20082;-83
2022/11/24 06:35:45;;;;;;;0.50;0.50;;;6.00;99.90;;;;;;4999930;28;20437;-82
2022/11/24 06:38:10;;;;;;;0.50;0.50;;;6.00;99.90;;;;;;5001146;28;20116;-83
2022/11/24 06:40:36;;;;;;;0.60;0.60;;;6.00;99.90;;;;;;5000401;28;20042;-82
2022/11/24 06:43:02;;;;;;;0.60;0.60;;;6.00;99.90;;;;;;4986481;28;20077;-82
2022/11/24 06:45:27;;;;;;;0.60;0.60;;;6.00;99.90;;;;;;5006199;28;20816;-85
2022/11/24 06:47:54;;;;;;;0.60;0.60;;;6.00;99.90;;;;;;4971146;28;20050;-83
2022/11/24 06:50:20;;;;;;;0.43;0.43;;;6.00;99.90;;;;;;4999335;28;20045;-83
2022/11/24 06:52:46;;;;;;;0.80;0.80;;;6.00;99.90;;;;;;5014607;28;20069;-83
2022/11/24 06:55:12;;;;;;;0.60;0.60;;;6.30;99.90;;;;;;4996938;28;20045;-83
2022/11/24 06:57:38;;;;;;;0.57;0.57;;;6.00;99.90;;;;;;4980676;28;20057;-82
2022/11/24 07:00:06;;;;;;;0.50;0.50;;;6.00;99.90;;;;;;4982098;28;20046;-82
2022/11/24 07:02:31;;;;;;;0.57;0.57;;;6.00;99.90;;;;;;4997423;28;20057;-82
2022/11/24 07:04:57;;;;;;;0.70;0.70;;;6.00;99.90;;;;;;4999877;28;20077;-81
2022/11/24 07:07:23;;;;;;;0.55;0.55;;;6.00;99.90;;;;;;4977849;28;20439;-81
2022/11/24 07:09:48;;;;;;;0.57;0.57;;;6.00;99.90;;;;;;4996595;28;20053;-82
2022/11/24 07:12:14;;;;;;;0.60;0.60;;;6.50;99.90;;;;;;4996457;28;20046;-82
2022/11/24 07:14:40;;;;;;;0.70;0.70;;;6.00;99.90;;;;;;4999730;28;20050;-82
2022/11/24 07:17:06;;;;;;;0.60;0.60;;;6.10;99.90;;;;;;5000939;28;20054;-81
2022/11/24 07:19:31;;;;;;;;;;;6.50;99.90;;;;;;5003732;28;20641;-83
2022/11/24 07:21:57;;;;;;;0.50;0.50;;;5.90;99.90;;;;;;5003007;28;19948;-83
2022/11/24 07:24:23;;;;;;;0.70;0.70;;;5.90;99.90;;;;;;5006752;28;20041;-82
2022/11/24 07:26:49;;;;;;;0.60;0.60;;;5.90;99.90;;;;;;4990323;28;20042;-85
2022/11/24 07:29:14;;;;;;;0.50;0.50;;;5.90;99.90;;;;;;5019914;28;20033;-83
2022/11/24 07:31:41;;;;;;;0.57;0.57;;;5.90;99.90;;;;;;5012635;28;20133;-84
2022/11/24 07:34:13;;;;;;;0.60;0.60;;;6.00;99.90;;;;;;5008566;28;20045;-84
2022/11/24 07:36:40;;;;;;;0.60;0.60;;;5.90;99.90;;;;;;5008748;28;20034;-82
2022/11/24 07:39:07;;;;;;;0.60;0.60;;;5.90;99.90;;;;;;5005834;28;20042;-84
2022/11/24 07:41:33;;;;;;;0.60;0.60;;;5.90;99.90;;;;;;4990918;28;20034;-83
2022/11/24 07:43:58;;;;;;;0.50;0.50;;;5.80;99.90;;;;;;5005626;28;20060;-83
2022/11/24 07:46:24;;;;;;;0.60;0.60;;;6.00;99.90;;;;;;5003540;28;20041;-83
2022/11/24 07:48:50;;;;;;;0.60;0.60;;;5.80;99.90;;;;;;5003831;28;20113;-83
2022/11/24 07:51:16;;;;;;;0.60;0.60;;;5.80;99.90;;;;;;5020807;28;20046;-82
2022/11/24 07:53:42;;;;;;;0.40;0.40;;;6.50;99.90;;;;;;5006076;28;20052;-85
2022/11/24 07:56:09;;;;;;;0.60;0.60;;;5.90;99.90;;;;;;4987515;28;20038;-84
2022/11/24 07:58:36;;;;;;;0.73;0.73;;;6.00;99.90;;;;;;4985452;28;20041;-83
2022/11/24 08:01:16;;;;;;;0.70;0.70;;;6.00;99.90;;;;;;5012920;28;20052;-83
2022/11/24 08:03:43;;;;;;;0.60;0.60;;;5.90;99.90;;;;;;5011037;28;20049;-83
2022/11/24 08:06:10;;;;;;;0.70;0.70;;;6.00;99.90;;;;;;4950426;28;20056;-84
2022/11/24 08:08:36;;;;;;;0.60;0.60;;;6.20;99.90;;;;;;5004256;28;20053;-83
2022/11/24 08:11:06;;;;;;;0.50;0.50;;;6.00;99.90;;;;;;4994534;28;20075;-83
2022/11/24 08:13:33;;;;;;;0.45;0.45;;;6.10;99.90;;;;;;5021387;28;20064;-83
2022/11/24 08:16:03;;;;;;;0.52;0.52;;;6.10;99.90;;;;;;5011436;28;20042;-82
2022/11/24 08:18:29;;;;;;;0.70;0.70;;;6.10;99.90;;;;;;5027247;28;20054;-83
2022/11/24 08:20:57;;;;;;;0.52;0.52;;;6.00;99.90;;;;;;4994260;28;20038;-82
2022/11/24 08:23:22;;;;;;;0.70;0.70;;;6.10;99.90;;;;;;5011809;28;20055;-83
2022/11/24 08:25:48;;;;;;;0.60;0.60;;;6.20;99.90;;;;;;5011522;28;20046;-84
2022/11/24 08:28:14;;;;;;;0.70;0.70;;;6.20;99.90;;;;;;5010224;28;20050;-83
2022/11/24 08:30:39;;;;;;;0.60;0.60;;;6.30;99.90;;;;;;5010604;28;20831;-81
2022/11/24 08:33:05;;;;;;;0.90;0.90;;;6.30;99.90;;;;;;5008978;28;20515;-83
2022/11/24 08:35:34;;;;;;;0.70;0.70;;;6.30;99.90;;;;;;4985931;28;20736;-82
2022/11/24 08:38:00;;;;;;;0.60;0.60;;;6.30;99.90;;;;;;4998755;28;20465;-84
2022/11/24 08:40:26;;;;;;;0.70;0.70;;;6.20;99.90;;;;;;5017286;28;20056;-84
2022/11/24 08:42:56;;;;;;;0.50;0.50;;;6.30;99.90;;;;;;4983255;28;20045;-84
2022/11/24 08:45:22;;;;;;;0.50;0.50;;;6.40;99.90;;;;;;5001132;28;20117;-81
2022/11/24 08:47:55;;;;;;;0.50;0.50;;;6.40;99.90;;;;;;5008795;28;20037;-84
2022/11/24 08:50:22;;;;;;;0.50;0.50;;;6.50;99.90;;;;;;5009021;28;20042;-83
2022/11/24 08:52:48;;;;;;;0.55;0.55;;;6.70;99.90;;;;;;5004540;28;20121;-83
2022/11/24 08:55:14;;;;;;;0.60;0.60;;;6.80;99.90;;;;;;5004948;28;20137;-81
2022/11/24 08:57:41;;;;;;;1.52;1.42;;;7.00;99.90;;;;;;4992688;28;20041;-82
2022/11/24 09:00:07;;;;;;;0.50;0.50;;;7.00;99.90;;;;;;5008018;28;20049;-83
2022/11/24 09:02:33;;;;;;;0.50;0.50;;;7.10;99.90;;;;;;5008681;28;20049;-83
2022/11/24 09:04:58;;;;;;;0.60;0.60;;;7.20;99.90;;;;;;5009083;28;20041;-83
2022/11/24 09:07:24;;;;;;;1.85;1.40;;;7.30;99.90;;;;;;5020054;28;20046;-86
2022/11/24 09:09:50;;;;;;;0.60;0.60;;;7.40;99.90;;;;;;5007488;28;20136;-82
2022/11/24 09:12:17;;;;;;;0.50;0.50;;;7.40;99.90;;;;;;4998475;28;20049;-82
2022/11/24 09:14:43;;;;;;;0.50;0.50;;;7.40;99.90;;;;;;5010936;28;20100;-81
2022/11/24 09:17:13;;;;;;;0.60;0.60;;;7.40;99.90;;;;;;5010222;28;20148;-82
2022/11/24 09:19:38;;;;;;;0.50;0.50;;;7.40;99.90;;;;;;5006501;28;20053;-82
2022/11/24 09:22:04;;;;;;;0.57;0.57;;;7.30;99.90;;;;;;4994535;28;20741;-83
2022/11/24 09:24:30;;;;;;;0.50;0.50;;;7.30;99.90;;;;;;5010858;28;20080;-82
2022/11/24 09:26:55;;;;;;;0.68;0.57;;;7.30;99.90;;;;;;5021176;28;21045;-82
2022/11/24 09:29:21;;;;;;;0.50;0.50;;;7.30;99.90;;;;;;5007914;28;20673;-82
2022/11/24 09:31:47;;;;;;;0.40;0.40;;;7.20;99.90;;;;;;5008383;28;20460;-83
2022/11/24 09:34:14;;;;;;;0.63;0.63;;;7.30;99.90;;;;;;5011138;28;20545;-83
2022/11/24 09:36:41;;;;;;;2.55;1.25;;;7.30;99.90;;;;;;5010220;28;20072;-83
2022/11/24 09:39:06;;;;;;;0.50;0.50;;;7.40;99.90;;;;;;5010063;28;20045;-83
2022/11/24 09:42:11;;;;;;;0.88;0.88;;;7.50;99.90;;;;;;4995795;28;20053;-85
2022/11/24 09:44:49;;;;;;;1.08;1.08;;;7.60;99.90;;;;;;5007847;28;20820;-82
2022/11/24 09:47:40;;;;;;;1.45;0.90;;;7.60;99.90;;;;;;5010170;28;20503;-84
2022/11/24 09:50:19;;;;;;;0.77;0.77;;;7.70;99.90;;;;;;5016051;28;20088;-81
2022/11/24 09:53:05;;;;;;;0.43;0.43;;;7.70;99.90;;;;;;5008884;28;20049;-83
2022/11/24 09:55:39;;;;;;;0.52;0.52;;;7.80;99.90;;;;;;5007917;28;20042;-84
2022/11/24 09:58:23;;;;;;;1.33;0.95;;;7.80;99.90;;;;;;5005310;28;20045;-83
2022/11/24 10:00:52;;;;;;;1.20;1.10;;;7.90;99.90;;;;;;5008354;28;20048;-82
2022/11/24 10:03:33;;;;;;;0.43;0.43;;;8.00;99.90;;;;;;4987813;28;20076;-83
2022/11/24 10:06:03;;;;;;;3.00;1.10;;;8.00;99.90;;;;;;5008350;28;20187;-84
2022/11/24 10:09:21;;;;;;;0.98;0.98;;;8.20;99.90;;;;;;5005228;28;20058;-84
2022/11/24 10:12:09;;;;;;;0.50;0.50;;;8.20;99.90;;;;;;4999451;28;20053;-83
2022/11/24 10:14:37;;;;;;;0.50;0.50;;;8.30;99.90;;;;;;4994473;28;20396;-83
2022/11/24 10:17:15;;;;;;;0.50;0.50;;;8.30;99.90;;;;;;4998665;28;20056;-85
2022/11/24 10:20:12;;;;;;;0.50;0.50;;;8.30;99.90;;;;;;5012952;28;20049;-83
2022/11/24 10:22:47;;;;;;;0.65;0.65;;;8.50;99.90;;;;;;5012168;28;20034;-83
2022/11/24 10:25:41;;;;;;;0.75;0.75;;;8.60;99.90;;;;;;4996726;28;20701;-83
2022/11/24 10:28:13;;;;;;;0.73;0.73;;;8.50;99.90;;;;;;5013008;28;20037;-82
2022/11/24 10:30:40;;;;;;;0.40;0.40;;;8.50;99.90;;;;;;5012121;28;20065;-84
2022/11/24 10:33:09;;;;;;;0.60;0.60;;;8.60;99.90;;;;;;5028342;28;20354;-83
2022/11/24 10:36:02;;;;;;;1.15;1.15;;;8.70;99.90;;;;;;5013833;28;20100;-84
2022/11/24 10:38:58;;;;;;;0.82;0.82;;;8.70;99.90;;;;;;5024012;28;20122;-84
2022/11/24 10:41:36;;;;;;;0.60;0.60;;;8.80;99.90;;;;;;5010957;28;20050;-83
2022/11/24 10:44:02;;;;;;;0.60;0.60;;;8.80;99.90;;;;;;5014535;28;20475;-83
2022/11/24 10:46:28;;;;;;;0.50;0.50;;;8.80;99.90;;;;;;5014848;28;20163;-82
2022/11/24 10:49:04;;;;;;;0.40;0.40;;;8.90;99.90;;;;;;5000945;28;20134;-82
2022/11/24 10:51:47;;;;;;;0.40;0.40;;;8.90;99.90;;;;;;5016835;28;20064;-81
2022/11/24 10:54:18;;;;;;;0.73;0.73;;;8.90;99.90;;;;;;5018579;28;20392;-84
2022/11/24 10:56:50;;;;;;;0.70;0.70;;;8.80;99.90;;;;;;5026813;28;20468;-82
2022/11/24 10:59:35;;;;;;;0.40;0.40;;;8.80;99.90;;;;;;5009872;28;20143;-83
2022/11/24 11:02:01;;;;;;;0.50;0.50;;;8.80;99.90;;;;;;5013068;28;20470;-83
2022/11/24 11:04:33;;;;;;;0.40;0.40;;;8.80;99.90;;;;;;5013207;28;20041;-83
2022/11/24 11:07:19;;;;;;;0.40;0.40;;;8.80;99.90;;;;;;5013000;28;20112;-83
2022/11/24 11:09:48;;;;;;;0.50;0.50;;;8.90;99.90;;;;;;5023730;28;20093;-84
2022/11/24 11:12:22;;;;;;;;;;;8.90;99.90;;;;;;5000170;28;20382;-83
2022/11/24 11:14:49;;;;;;;2.95;1.50;;;8.90;99.90;;;;;;5034261;28;19921;-83
2022/11/24 11:17:37;;;;;;;0.60;0.60;;;8.90;99.90;;;;;;5011583;28;20088;-83
2022/11/24 11:20:25;;;;;;;0.70;0.70;;;9.00;99.90;;;;;;5028686;28;20441;-84
2022/11/24 11:22:52;;;;;;;0.40;0.40;;;9.00;99.90;;;;;;4994688;28;20471;-83
2022/11/24 11:25:40;;;;;;;0.40;0.40;;;9.10;99.90;;;;;;4999361;28;20060;-84
2022/11/24 11:28:28;;;;;;;0.40;0.40;;;9.10;99.90;;;;;;5031274;28;20470;-84
2022/11/24 11:31:04;;;;;;;0.50;0.50;;;9.20;99.90;;;;;;5010669;28;20123;-84
2022/11/24 11:33:32;;;;;;;0.47;0.47;;;9.20;99.90;;;;;;5008612;28;20148;-84
2022/11/24 11:36:00;;;;;;;0.60;0.60;;;9.30;99.90;;;;;;5032691;28;20586;-84
2022/11/24 11:38:33;;;;;;;0.60;0.60;;;9.30;99.90;;;;;;5011400;28;20049;-82
2022/11/24 11:41:01;;;;;;;0.55;0.55;;;9.30;99.90;;;;;;5027947;28;20065;-82
2022/11/24 11:43:35;;;;;;;0.43;0.43;;;9.40;99.90;;;;;;5022721;28;20065;-82
2022/11/24 11:46:16;;;;;;;0.52;0.52;;;9.40;99.90;;;;;;4992300;28;20108;-83
2022/11/24 11:48:46;;;;;;;0.50;0.50;;;9.40;99.90;;;;;;5009320;28;20038;-82
2022/11/24 11:51:25;;;;;;;0.30;0.30;;;9.50;99.90;;;;;;5006674;28;20573;-83
2022/11/24 11:54:07;;;;;;;2.83;0.82;;;9.50;99.90;;;;;;5006661;28;20383;-83
2022/11/24 11:56:43;;;;;;;0.57;0.57;;;9.50;99.90;;;;;;5008502;28;20045;-82
2022/11/24 11:59:26;;;;;;;0.40;0.40;;;9.60;99.90;;;;;;4992642;28;20041;-83
2022/11/24 12:02:18;;;;;;;0.50;0.50;;;9.60;99.90;;;;;;4990825;28;20053;-83
2022/11/24 12:05:08;;;;;;;0.40;0.40;;;9.60;99.90;;;;;;4970903;28;20140;-83
2022/11/24 12:08:17;;;;;;;0.50;0.50;;;9.70;99.90;;;;;;5023926;28;20037;-82
2022/11/24 12:10:56;;;;;;;0.50;0.50;;;9.70;99.90;;;;;;5026464;28;20045;-82
2022/11/24 12:14:07;;;;;;;0.50;0.50;;;9.80;99.90;;;;;;5008679;28;20041;-83
2022/11/24 12:16:38;;;;;;;0.40;0.40;;;9.80;99.90;;;;;;4994738;28;20041;-83
2022/11/24 12:19:13;;;;;;;0.50;0.50;;;10.00;99.90;;;;;;5006134;28;20593;-83
2022/11/24 12:22:01;;;;;;;0.50;0.50;;;10.00;99.90;;;;;;5005496;28;20037;-84
2022/11/24 12:24:32;;;;;;;0.80;0.80;;;10.00;99.90;;;;;;5004578;28;20067;-84
2022/11/24 12:27:04;;;;;;;0.30;0.30;;;10.10;99.90;;;;;;5008053;28;20037;-83
2022/11/24 12:29:41;;;;;;;0.40;0.40;;;10.10;99.90;;;;;;5006890;28;20045;-83
2022/11/24 12:32:35;;;;;;;0.40;0.40;;;10.10;99.90;;;;;;5019842;28;20041;-83
2022/11/24 12:35:28;;;;;;;1.15;1.15;;;10.20;99.90;;;;;;5003743;28;20394;-83
2022/11/24 12:38:24;;;;;;;0.30;0.30;;;10.20;99.90;;;;;;4989080;28;20061;-83
2022/11/24 12:41:18;;;;;;;1.75;1.70;;;10.30;99.90;;;;;;5004476;28;20132;-85
2022/11/24 12:43:51;;;;;;;0.60;0.60;;;10.30;99.90;;;;;;5019174;28;20049;-83
2022/11/24 12:46:54;;;;;;;0.40;0.40;;;10.30;99.90;;;;;;5005447;28;20045;-84
2022/11/24 12:49:41;;;;;;;0.32;0.32;;;10.30;99.90;;;;;;5021925;28;20057;-84
2022/11/24 12:52:27;;;;;;;0.38;0.38;;;10.30;99.90;;;;;;5007749;28;20053;-84
2022/11/24 12:54:54;;;;;;;0.50;0.50;;;10.30;99.90;;;;;;5004664;28;20125;-83
2022/11/24 12:57:35;;;;;;;0.45;0.45;;;10.30;99.90;;;;;;5004973;28;20091;-84
2022/11/24 13:00:12;;;;;;;0.55;0.55;;;10.30;99.90;;;;;;5007144;28;20048;-82
2022/11/24 13:02:50;;;;;;;0.47;0.47;;;10.30;99.90;;;;;;5006092;28;20048;-83
2022/11/24 13:05:28;;;;;;;0.38;0.38;;;10.30;99.90;;;;;;5023732;28;21075;-83
2022/11/24 13:08:00;;;;;;;0.40;0.40;;;10.30;99.90;;;;;;5025375;28;20054;-83
2022/11/24 13:10:37;;;;;;;1.60;1.50;;;10.40;99.90;;;;;;5020809;28;20059;-84
2022/11/24 13:13:06;;;;;;;0.55;0.55;;;10.40;99.90;;;;;;5004419;28;20159;-83
2022/11/24 13:15:51;;;;;;;0.60;0.60;;;10.30;99.90;;;;;;5003852;28;20053;-83
2022/11/24 13:18:42;;;;;;;2.28;0.95;;;10.30;99.90;;;;;;5021508;28;20051;-83
2022/11/24 13:22:00;;;;;;;0.50;0.50;;;10.30;99.90;;;;;;5006676;28;20052;-84